createdAt,value
2022-11-15T00:09:42.161Z,100710.58
2022-11-15T00:25:08.053Z,100689.46
2022-11-15T00:40:31.294Z,100657.27
2022-11-15T00:55:53.599Z,100638.02
2022-11-15T01:11:15.481Z,100632.92
2022-11-15T01:26:37.064Z,100615.27
2022-11-15T01:41:59.326Z,100596.39
2022-11-15T01:57:21.462Z,100586.98
2022-11-15T02:12:44.342Z,100565.33
2022-11-15T02:28:24.392Z,100540.73
2022-11-15T02:44:01.965Z,100520.31
2022-11-15T02:59:30.025Z,100515.59
2022-11-15T03:15:01.169Z,100507.66
2022-11-15T03:30:23.483Z,100480.02
2022-11-15T03:45:52.290Z,100461.17
2022-11-15T04:01:14.519Z,100445.27
2022-11-15T04:16:42.443Z,100435.14
2022-11-15T04:32:07.325Z,100443.29
2022-11-15T04:47:30.612Z,100440.59
2022-11-15T05:03:11.331Z,100428.39
2022-11-15T05:18:33.729Z,100410.86
2022-11-15T05:33:57.670Z,100393.05
2022-11-15T05:49:23.230Z,100394.95
2022-11-15T06:04:44.797Z,100394.26
2022-11-15T06:20:07.514Z,100392.35
2022-11-15T06:35:30.006Z,100408.60
2022-11-15T06:50:56.147Z,100423.23
2022-11-15T07:06:18.644Z,100420.98
2022-11-15T07:21:40.977Z,100413.98
2022-11-15T07:37:03.317Z,100401.86
2022-11-15T07:52:25.917Z,100398.88
2022-11-15T08:07:48.719Z,100398.77
2022-11-15T08:23:12.967Z,100386.71
2022-11-15T08:38:34.841Z,100378.14
2022-11-15T08:53:56.963Z,100381.39
2022-11-15T09:09:19.050Z,100375.08
2022-11-15T09:24:41.137Z,100364.70
2022-11-15T09:40:04.238Z,100363.09
2022-11-15T09:55:40.001Z,100353.98
2022-11-15T10:10:48.255Z,100337.80
2022-11-15T10:26:06.370Z,100330.75
2022-11-15T10:41:13.378Z,100322.42
2022-11-15T10:56:24.665Z,100306.31
2022-11-15T11:11:50.026Z,100294.78
2022-11-15T11:27:23.181Z,100286.75
2022-11-15T11:42:44.991Z,100271.83
2022-11-15T11:58:15.323Z,100262.17
2022-11-15T12:13:24.536Z,100263.27
2022-11-15T12:29:04.410Z,100248.06
2022-11-15T12:44:13.785Z,100239.56
2022-11-15T13:00:05.409Z,100235.37
2022-11-15T13:15:14.727Z,100235.02
2022-11-15T13:30:24.531Z,100234.46
2022-11-15T13:45:28.482Z,100216.07
2022-11-15T14:00:45.389Z,100212.17
2022-11-15T14:15:49.205Z,100212.05
2022-11-15T14:30:55.978Z,100202.60
2022-11-15T14:46:00.823Z,100184.66
2022-11-15T15:01:15.615Z,100177.69
2022-11-15T15:16:19.735Z,100180.73
2022-11-15T15:31:23.858Z,100176.11
2022-11-15T15:46:32.741Z,100169.95
2022-11-15T16:01:39.299Z,100167.70
2022-11-15T16:16:42.837Z,100158.66
2022-11-15T16:31:47.007Z,100150.91
2022-11-15T16:46:55.332Z,100147.88
2022-11-15T17:01:59.578Z,100149.88
2022-11-15T17:17:03.184Z,100154.51
2022-11-15T17:32:07.057Z,100141.39
2022-11-15T17:47:11.349Z,100143.60
2022-11-15T18:02:15.139Z,100159.47
2022-11-15T18:17:19.665Z,100157.76
2022-11-15T18:32:23.825Z,100148.72
2022-11-15T18:47:27.526Z,100143.75
2022-11-15T19:02:31.895Z,100134.99
2022-11-15T19:17:35.971Z,100152.84
2022-11-15T19:32:39.703Z,100142.90
2022-11-15T19:47:43.692Z,100137.59
2022-11-15T20:02:48.452Z,100141.25
2022-11-15T20:17:53.390Z,100138.08
2022-11-15T20:32:57.172Z,100140.76
2022-11-15T20:48:00.854Z,100131.25
2022-11-15T21:03:09.049Z,100122.30
2022-11-15T21:18:12.971Z,100116.42
2022-11-15T21:33:16.208Z,100094.09
2022-11-15T21:48:19.411Z,100089.02
2022-11-15T22:04:46.537Z,100081.27
2022-11-15T22:19:52.891Z,100083.36
2022-11-15T22:34:56.437Z,100079.32
2022-11-15T22:49:59.864Z,100056.14
2022-11-15T23:05:03.797Z,100045.96
2022-11-15T23:20:36.438Z,100052.70
2022-11-15T23:35:32.486Z,100030.48
2022-11-15T23:50:36.944Z,100030.09
